ABR1410 EINN-EGJJ
Flight info
| Callsign | ABR1410 |
|---|---|
| Flight time | N/A |
| Altitude | 31000 |
| Route | LUNIG3A LUNIG DCT NORLA DCT FONZU DCT ABBEW N90 ENHEL N862 SKERY |
| Aircraft | B738/M-SDE2E3FGHIRWXY/LB1 |
Departure
| Time | 2026-05-05 17:58 |
|---|---|
| Airport | Shannon Airport (EINN) |
Arrival
| Time | N/A |
|---|---|
| Airport | Jersey Airport (EGJJ) |
| Time | Latitude | Longitude | Altitude | Speed | Heading |
|---|---|---|---|---|---|
| 2026-05-05 17:45 | 52.69172 | -8.91572 | 49 ft | 0 kts | 220° |
| 2026-05-05 17:46 | 52.69174 | -8.91570 | 49 ft | 1 kts | 220° |
| 2026-05-05 17:46 | 52.69184 | -8.91556 | 24 ft | 2 kts | 220° |
| 2026-05-05 17:46 | 52.69196 | -8.91535 | 22 ft | 3 kts | 250° |
| 2026-05-05 17:46 | 52.69198 | -8.91508 | 24 ft | 3 kts | 299° |
| 2026-05-05 17:47 | 52.69186 | -8.91483 | 22 ft | 3 kts | 321° |
| 2026-05-05 17:47 | 52.69177 | -8.91471 | 25 ft | 1 kts | 322° |
| 2026-05-05 17:47 | 52.69175 | -8.91469 | 25 ft | 0 kts | 322° |
| 2026-05-05 17:52 | 52.69176 | -8.91470 | 25 ft | 1 kts | 322° |
| 2026-05-05 17:52 | 52.69203 | -8.91503 | 24 ft | 7 kts | 322° |
| 2026-05-05 17:52 | 52.69243 | -8.91561 | 22 ft | 8 kts | 311° |
| 2026-05-05 17:52 | 52.69290 | -8.91652 | 22 ft | 12 kts | 310° |
| 2026-05-05 17:53 | 52.69346 | -8.91736 | 21 ft | 11 kts | 338° |
| 2026-05-05 17:53 | 52.69413 | -8.91775 | 22 ft | 10 kts | 324° |
| 2026-05-05 17:53 | 52.69445 | -8.91871 | 22 ft | 10 kts | 289° |
| 2026-05-05 17:53 | 52.69461 | -8.91977 | 21 ft | 10 kts | 283° |
| 2026-05-05 17:54 | 52.69478 | -8.92087 | 21 ft | 10 kts | 284° |
| 2026-05-05 17:54 | 52.69498 | -8.92194 | 21 ft | 10 kts | 291° |
| 2026-05-05 17:54 | 52.69526 | -8.92295 | 22 ft | 10 kts | 297° |
| 2026-05-05 17:54 | 52.69570 | -8.92394 | 22 ft | 12 kts | 315° |
| 2026-05-05 17:55 | 52.69634 | -8.92496 | 22 ft | 14 kts | 316° |
| 2026-05-05 17:55 | 52.69701 | -8.92604 | 22 ft | 13 kts | 315° |
| 2026-05-05 17:55 | 52.69765 | -8.92708 | 22 ft | 13 kts | 315° |
| 2026-05-05 17:55 | 52.69828 | -8.92809 | 23 ft | 12 kts | 315° |
| 2026-05-05 17:56 | 52.69888 | -8.92909 | 28 ft | 12 kts | 313° |
| 2026-05-05 17:56 | 52.69929 | -8.92991 | 38 ft | 6 kts | 307° |
| 2026-05-05 17:56 | 52.69957 | -8.93000 | 38 ft | 4 kts | 32° |
| 2026-05-05 17:56 | 52.69974 | -8.92968 | 37 ft | 1 kts | 52° |
| 2026-05-05 17:57 | 52.69976 | -8.92963 | 37 ft | 0 kts | 52° |
| 2026-05-05 17:57 | 52.69978 | -8.92959 | 37 ft | 2 kts | 52° |
| 2026-05-05 17:57 | 52.70021 | -8.92866 | 36 ft | 30 kts | 52° |
| 2026-05-05 17:57 | 52.70298 | -8.92282 | 33 ft | 102 kts | 52° |
| 2026-05-05 17:58 | 52.70871 | -8.91062 | 76 ft | 161 kts | 52° |
| 2026-05-05 17:58 | 52.71569 | -8.89601 | 783 ft | 167 kts | 50° |
| 2026-05-05 17:58 | 52.72163 | -8.87950 | 1710 ft | 175 kts | 71° |
| 2026-05-05 17:58 | 52.72116 | -8.85840 | 2405 ft | 196 kts | 106° |
| 2026-05-05 17:59 | 52.71500 | -8.83797 | 3301 ft | 202 kts | 117° |
| 2026-05-05 17:59 | 52.70791 | -8.81787 | 4118 ft | 204 kts | 118° |
| 2026-05-05 17:59 | 52.70044 | -8.79765 | 4850 ft | 209 kts | 121° |
| 2026-05-05 17:59 | 52.69232 | -8.77710 | 5435 ft | 218 kts | 123° |
| 2026-05-05 18:00 | 52.68388 | -8.75702 | 6027 ft | 206 kts | 125° |
| 2026-05-05 18:00 | 52.67557 | -8.73828 | 6433 ft | 207 kts | 126° |
| 2026-05-05 18:00 | 52.66678 | -8.71912 | 7025 ft | 211 kts | 128° |
| 2026-05-05 18:00 | 52.65753 | -8.70028 | 7681 ft | 213 kts | 129° |
| 2026-05-05 18:01 | 52.64700 | -8.68200 | 8115 ft | 230 kts | 133° |
| 2026-05-05 18:01 | 52.63547 | -8.66215 | 8560 ft | 247 kts | 134° |
| 2026-05-05 18:01 | 52.62341 | -8.64191 | 9419 ft | 245 kts | 134° |
| 2026-05-05 18:01 | 52.61154 | -8.62240 | 10405 ft | 238 kts | 135° |
| 2026-05-05 18:02 | 52.59940 | -8.60292 | 10878 ft | 256 kts | 135° |
| 2026-05-05 18:02 | 52.58600 | -8.58143 | 11126 ft | 282 kts | 135° |
| 2026-05-05 18:02 | 52.57164 | -8.55830 | 11516 ft | 300 kts | 135° |
| 2026-05-05 18:02 | 52.55656 | -8.53394 | 12228 ft | 307 kts | 135° |
| 2026-05-05 18:03 | 52.54129 | -8.50920 | 13112 ft | 309 kts | 135° |
| 2026-05-05 18:03 | 52.52586 | -8.48418 | 13871 ft | 316 kts | 135° |
| 2026-05-05 18:03 | 52.51018 | -8.45874 | 14648 ft | 317 kts | 135° |
| 2026-05-05 18:03 | 52.49443 | -8.43319 | 15397 ft | 321 kts | 135° |
| 2026-05-05 18:04 | 52.47842 | -8.40723 | 16097 ft | 326 kts | 135° |
| 2026-05-05 18:04 | 52.46223 | -8.38101 | 16841 ft | 328 kts | 135° |
| 2026-05-05 18:04 | 52.44588 | -8.35452 | 17550 ft | 333 kts | 135° |
| 2026-05-05 18:04 | 52.42950 | -8.32804 | 18264 ft | 337 kts | 135° |
| 2026-05-05 18:05 | 52.41276 | -8.30103 | 18956 ft | 339 kts | 136° |
| 2026-05-05 18:05 | 52.39591 | -8.27378 | 19582 ft | 343 kts | 135° |
| 2026-05-05 18:05 | 52.37920 | -8.24464 | 19829 ft | 360 kts | 133° |
| 2026-05-05 18:05 | 52.36213 | -8.21309 | 19964 ft | 380 kts | 131° |
| 2026-05-05 18:06 | 52.34444 | -8.17981 | 20222 ft | 394 kts | 131° |
| 2026-05-05 18:06 | 52.33245 | -8.15725 | 20487 ft | 400 kts | 131° |
| 2026-05-05 18:06 | 52.30798 | -8.11137 | 21122 ft | 407 kts | 132° |
| 2026-05-05 18:06 | 52.28930 | -8.07659 | 21789 ft | 408 kts | 132° |
| 2026-05-05 18:07 | 52.27045 | -8.04166 | 22331 ft | 412 kts | 132° |
| 2026-05-05 18:07 | 52.25138 | -8.00648 | 22873 ft | 416 kts | 133° |
| 2026-05-05 18:07 | 52.23213 | -7.97108 | 23436 ft | 418 kts | 133° |
| 2026-05-05 18:07 | 52.21273 | -7.93547 | 23922 ft | 421 kts | 133° |
| 2026-05-05 18:08 | 52.19318 | -7.89966 | 24368 ft | 424 kts | 133° |
| 2026-05-05 18:08 | 52.17351 | -7.86366 | 24805 ft | 427 kts | 133° |
| 2026-05-05 18:08 | 52.15370 | -7.82747 | 25235 ft | 430 kts | 133° |
| 2026-05-05 18:08 | 52.13402 | -7.79155 | 25651 ft | 432 kts | 133° |
| 2026-05-05 18:09 | 52.11391 | -7.75492 | 26068 ft | 435 kts | 133° |
| 2026-05-05 18:09 | 52.09368 | -7.71811 | 26485 ft | 437 kts | 133° |
| 2026-05-05 18:09 | 52.07334 | -7.68117 | 26890 ft | 440 kts | 133° |
| 2026-05-05 18:09 | 52.05286 | -7.64401 | 27273 ft | 443 kts | 133° |
| 2026-05-05 18:10 | 52.03222 | -7.60663 | 27658 ft | 445 kts | 133° |
| 2026-05-05 18:10 | 52.01147 | -7.56911 | 28075 ft | 447 kts | 133° |
| 2026-05-05 18:10 | 51.99076 | -7.53171 | 28623 ft | 445 kts | 133° |
| 2026-05-05 18:10 | 51.97039 | -7.49496 | 29206 ft | 442 kts | 133° |
| 2026-05-05 18:11 | 51.94985 | -7.45798 | 29760 ft | 441 kts | 133° |
| 2026-05-05 18:11 | 51.92933 | -7.42108 | 30225 ft | 440 kts | 133° |
| 2026-05-05 18:11 | 51.90882 | -7.38426 | 30611 ft | 440 kts | 133° |
| 2026-05-05 18:11 | 51.88828 | -7.34745 | 30995 ft | 440 kts | 133° |
| 2026-05-05 18:12 | 51.86770 | -7.31060 | 31031 ft | 442 kts | 133° |
| 2026-05-05 18:12 | 51.82664 | -7.23727 | 31049 ft | 439 kts | 133° |
| 2026-05-05 18:13 | 51.78591 | -7.16473 | 31059 ft | 439 kts | 133° |
| 2026-05-05 18:13 | 51.74484 | -7.09180 | 31052 ft | 439 kts | 133° |
| 2026-05-05 18:14 | 51.70369 | -7.01893 | 31045 ft | 439 kts | 133° |
| 2026-05-05 18:14 | 51.66250 | -6.94618 | 31048 ft | 439 kts | 133° |
| 2026-05-05 18:15 | 51.62306 | -6.87195 | 31042 ft | 440 kts | 124° |
| 2026-05-05 18:15 | 51.59610 | -6.78385 | 31057 ft | 440 kts | 112° |
| 2026-05-05 18:16 | 51.57357 | -6.69227 | 31045 ft | 440 kts | 112° |
| 2026-05-05 18:16 | 51.55093 | -6.60090 | 31048 ft | 440 kts | 112° |
| 2026-05-05 18:17 | 51.52795 | -6.50993 | 31048 ft | 439 kts | 112° |
| 2026-05-05 18:17 | 51.50494 | -6.41982 | 31049 ft | 439 kts | 112° |
| 2026-05-05 18:18 | 51.48168 | -6.32923 | 31051 ft | 439 kts | 112° |
| 2026-05-05 18:18 | 51.45836 | -6.23880 | 31048 ft | 439 kts | 112° |
| 2026-05-05 18:19 | 51.43499 | -6.14849 | 31044 ft | 438 kts | 112° |
| 2026-05-05 18:19 | 51.41176 | -6.05902 | 31045 ft | 438 kts | 112° |
| 2026-05-05 18:20 | 51.38830 | -5.96908 | 31040 ft | 437 kts | 112° |
| 2026-05-05 18:20 | 51.36481 | -5.87933 | 31041 ft | 437 kts | 112° |
| 2026-05-05 18:21 | 51.34125 | -5.78969 | 31037 ft | 437 kts | 112° |
| 2026-05-05 18:21 | 51.31777 | -5.70072 | 31037 ft | 437 kts | 112° |
| 2026-05-05 18:22 | 51.29406 | -5.61121 | 31035 ft | 437 kts | 112° |
| 2026-05-05 18:22 | 51.27028 | -5.52181 | 31034 ft | 437 kts | 112° |
| 2026-05-05 18:23 | 51.24643 | -5.43249 | 31029 ft | 437 kts | 112° |
| 2026-05-05 18:23 | 51.22257 | -5.34343 | 31026 ft | 436 kts | 111° |
| 2026-05-05 18:24 | 51.19882 | -5.25517 | 31022 ft | 435 kts | 111° |
| 2026-05-05 18:24 | 51.17491 | -5.16663 | 31020 ft | 434 kts | 111° |
| 2026-05-05 18:25 | 51.15097 | -5.07835 | 31019 ft | 433 kts | 111° |
| 2026-05-05 18:25 | 51.12703 | -4.99035 | 31017 ft | 433 kts | 111° |
| 2026-05-05 18:26 | 51.10323 | -4.90320 | 31010 ft | 432 kts | 112° |
| 2026-05-05 18:26 | 51.07920 | -4.81559 | 31013 ft | 432 kts | 112° |
| 2026-05-05 18:27 | 51.05512 | -4.72805 | 31008 ft | 432 kts | 112° |
| 2026-05-05 18:27 | 51.03092 | -4.64047 | 31007 ft | 433 kts | 112° |
| 2026-05-05 18:28 | 50.99464 | -4.50971 | 31005 ft | 434 kts | 113° |
| 2026-05-05 18:28 | 50.97016 | -4.42193 | 30998 ft | 435 kts | 114° |
| 2026-05-05 18:29 | 50.94557 | -4.33407 | 30997 ft | 436 kts | 114° |
| 2026-05-05 18:29 | 50.92086 | -4.24611 | 30992 ft | 437 kts | 115° |
| 2026-05-05 18:30 | 50.89603 | -4.15807 | 30992 ft | 438 kts | 115° |
| 2026-05-05 18:30 | 50.87130 | -4.07065 | 30985 ft | 438 kts | 115° |
| 2026-05-05 18:31 | 50.84633 | -3.98270 | 30984 ft | 438 kts | 116° |
| 2026-05-05 18:31 | 50.81702 | -3.89906 | 30976 ft | 433 kts | 129° |
| 2026-05-05 18:32 | 50.79703 | -3.86366 | 30969 ft | 430 kts | 140° |
| 2026-05-05 18:32 | 50.77440 | -3.83294 | 30979 ft | 428 kts | 142° |
| 2026-05-05 18:32 | 50.72878 | -3.77355 | 30965 ft | 428 kts | 142° |
| 2026-05-05 18:33 | 50.68310 | -3.71366 | 30961 ft | 425 kts | 142° |
| 2026-05-05 18:33 | 50.63848 | -3.65455 | 30910 ft | 413 kts | 142° |
| 2026-05-05 18:34 | 50.61669 | -3.62565 | 30544 ft | 407 kts | 142° |
| 2026-05-05 18:34 | 50.59500 | -3.59694 | 29961 ft | 408 kts | 142° |
| 2026-05-05 18:34 | 50.57323 | -3.56819 | 29323 ft | 409 kts | 142° |
| 2026-05-05 18:34 | 50.55149 | -3.53948 | 28781 ft | 406 kts | 142° |
| 2026-05-05 18:35 | 50.53021 | -3.51145 | 28286 ft | 403 kts | 142° |
| 2026-05-05 18:35 | 50.50868 | -3.48347 | 27793 ft | 400 kts | 144° |
| 2026-05-05 18:35 | 50.48545 | -3.45993 | 27277 ft | 395 kts | 154° |
| 2026-05-05 18:35 | 50.46110 | -3.44015 | 26801 ft | 393 kts | 155° |
| 2026-05-05 18:36 | 50.43677 | -3.42097 | 26320 ft | 390 kts | 155° |
| 2026-05-05 18:36 | 50.41256 | -3.40188 | 25846 ft | 389 kts | 155° |
| 2026-05-05 18:36 | 50.38851 | -3.38275 | 25381 ft | 387 kts | 154° |
| 2026-05-05 18:36 | 50.36460 | -3.36357 | 24925 ft | 385 kts | 154° |
| 2026-05-05 18:37 | 50.34084 | -3.34444 | 24482 ft | 383 kts | 154° |
| 2026-05-05 18:37 | 50.31750 | -3.32560 | 24050 ft | 382 kts | 154° |
| 2026-05-05 18:37 | 50.29395 | -3.30660 | 23612 ft | 380 kts | 154° |
| 2026-05-05 18:37 | 50.27048 | -3.28770 | 23120 ft | 379 kts | 154° |
| 2026-05-05 18:38 | 50.24713 | -3.26893 | 22663 ft | 376 kts | 154° |
| 2026-05-05 18:38 | 50.22321 | -3.25295 | 22214 ft | 372 kts | 163° |
| 2026-05-05 18:38 | 50.19821 | -3.24299 | 21757 ft | 370 kts | 168° |
| 2026-05-05 18:38 | 50.17313 | -3.23431 | 21281 ft | 369 kts | 168° |
| 2026-05-05 18:39 | 50.14808 | -3.22577 | 20788 ft | 368 kts | 168° |
| 2026-05-05 18:39 | 50.12352 | -3.21726 | 20421 ft | 365 kts | 167° |
| 2026-05-05 18:39 | 50.09885 | -3.20855 | 20009 ft | 363 kts | 167° |
| 2026-05-05 18:39 | 50.07430 | -3.19977 | 19582 ft | 361 kts | 166° |
| 2026-05-05 18:40 | 50.04987 | -3.19099 | 19192 ft | 359 kts | 166° |
| 2026-05-05 18:40 | 50.02563 | -3.18229 | 18827 ft | 356 kts | 166° |
| 2026-05-05 18:40 | 50.00166 | -3.17283 | 18419 ft | 354 kts | 159° |
| 2026-05-05 18:40 | 49.98013 | -3.15489 | 17989 ft | 350 kts | 145° |
| 2026-05-05 18:41 | 49.95992 | -3.13411 | 17571 ft | 347 kts | 144° |
| 2026-05-05 18:41 | 49.93994 | -3.11314 | 17156 ft | 345 kts | 144° |
| 2026-05-05 18:41 | 49.92037 | -3.09263 | 16760 ft | 343 kts | 144° |
| 2026-05-05 18:41 | 49.90059 | -3.07205 | 16351 ft | 341 kts | 144° |
| 2026-05-05 18:42 | 49.88089 | -3.05172 | 15960 ft | 339 kts | 144° |
| 2026-05-05 18:42 | 49.86124 | -3.03153 | 15545 ft | 338 kts | 144° |
| 2026-05-05 18:42 | 49.84166 | -3.01151 | 15128 ft | 337 kts | 144° |
| 2026-05-05 18:42 | 49.82217 | -2.99166 | 14765 ft | 332 kts | 145° |
| 2026-05-05 18:43 | 49.80303 | -2.97219 | 14182 ft | 329 kts | 145° |
| 2026-05-05 18:43 | 49.78389 | -2.95275 | 13494 ft | 329 kts | 144° |
| 2026-05-05 18:43 | 49.76505 | -2.93364 | 12864 ft | 327 kts | 145° |
| 2026-05-05 18:43 | 49.74613 | -2.91446 | 12266 ft | 324 kts | 145° |
| 2026-05-05 18:44 | 49.72882 | -2.89694 | 11721 ft | 321 kts | 145° |
| 2026-05-05 18:44 | 49.71017 | -2.87807 | 11080 ft | 320 kts | 145° |
| 2026-05-05 18:44 | 49.69159 | -2.85931 | 10507 ft | 318 kts | 145° |
| 2026-05-05 18:44 | 49.67321 | -2.84075 | 10129 ft | 312 kts | 145° |
| 2026-05-05 18:45 | 49.65519 | -2.82258 | 10002 ft | 305 kts | 145° |
| 2026-05-05 18:45 | 49.63787 | -2.80515 | 9863 ft | 289 kts | 145° |
| 2026-05-05 18:45 | 49.62150 | -2.78867 | 9737 ft | 275 kts | 145° |
| 2026-05-05 18:45 | 49.60586 | -2.77294 | 9362 ft | 270 kts | 145° |
| 2026-05-05 18:46 | 49.59012 | -2.75710 | 8900 ft | 270 kts | 145° |
| 2026-05-05 18:46 | 49.57447 | -2.74137 | 8505 ft | 268 kts | 145° |
| 2026-05-05 18:46 | 49.55892 | -2.72575 | 8073 ft | 267 kts | 145° |
| 2026-05-05 18:46 | 49.54342 | -2.71019 | 7652 ft | 265 kts | 144° |
| 2026-05-05 18:47 | 49.52801 | -2.69475 | 7252 ft | 264 kts | 144° |
| 2026-05-05 18:47 | 49.51260 | -2.67931 | 6935 ft | 264 kts | 144° |
| 2026-05-05 18:47 | 49.49738 | -2.66406 | 6820 ft | 257 kts | 144° |
| 2026-05-05 18:47 | 49.48254 | -2.64923 | 6633 ft | 253 kts | 144° |
| 2026-05-05 18:48 | 49.46787 | -2.63456 | 6318 ft | 256 kts | 144° |
| 2026-05-05 18:48 | 49.45288 | -2.61960 | 6030 ft | 258 kts | 144° |
| 2026-05-05 18:48 | 49.43849 | -2.60317 | 5688 ft | 257 kts | 128° |
| 2026-05-05 18:48 | 49.42814 | -2.58113 | 5417 ft | 254 kts | 120° |
| 2026-05-05 18:49 | 49.41930 | -2.55784 | 5110 ft | 251 kts | 112° |
| 2026-05-05 18:49 | 49.41198 | -2.53392 | 5013 ft | 243 kts | 110° |
| 2026-05-05 18:49 | 49.40497 | -2.51056 | 4998 ft | 240 kts | 110° |
| 2026-05-05 18:49 | 49.39805 | -2.48739 | 4986 ft | 238 kts | 110° |
| 2026-05-05 18:50 | 49.39116 | -2.46434 | 4991 ft | 238 kts | 110° |
| 2026-05-05 18:50 | 49.38437 | -2.44157 | 4967 ft | 237 kts | 110° |
| 2026-05-05 18:50 | 49.37755 | -2.41883 | 4788 ft | 234 kts | 110° |
| 2026-05-05 18:50 | 49.37072 | -2.39616 | 4505 ft | 234 kts | 110° |
| 2026-05-05 18:51 | 49.36390 | -2.37352 | 4246 ft | 234 kts | 110° |
| 2026-05-05 18:51 | 49.35709 | -2.35092 | 3986 ft | 233 kts | 110° |
| 2026-05-05 18:51 | 49.35028 | -2.32841 | 3733 ft | 232 kts | 110° |
| 2026-05-05 18:51 | 49.34348 | -2.30597 | 3477 ft | 232 kts | 110° |
| 2026-05-05 18:52 | 49.33670 | -2.28361 | 3243 ft | 229 kts | 110° |
| 2026-05-05 18:52 | 49.33007 | -2.26197 | 3173 ft | 220 kts | 110° |
| 2026-05-05 18:52 | 49.32374 | -2.24149 | 3081 ft | 210 kts | 110° |
| 2026-05-05 18:52 | 49.31760 | -2.22194 | 2999 ft | 197 kts | 110° |
| 2026-05-05 18:53 | 49.31171 | -2.20343 | 3008 ft | 192 kts | 110° |
| 2026-05-05 18:53 | 49.30620 | -2.18519 | 2870 ft | 185 kts | 100° |
| 2026-05-05 18:53 | 49.30546 | -2.16612 | 2566 ft | 178 kts | 81° |
| 2026-05-05 18:53 | 49.30630 | -2.14718 | 2213 ft | 180 kts | 81° |
| 2026-05-05 18:54 | 49.30721 | -2.12791 | 2039 ft | 184 kts | 81° |
| 2026-05-05 18:54 | 49.30821 | -2.10814 | 2005 ft | 187 kts | 81° |
| 2026-05-05 18:54 | 49.30924 | -2.08871 | 1992 ft | 184 kts | 80° |
| 2026-05-05 18:54 | 49.31020 | -2.06936 | 1978 ft | 180 kts | 81° |
| 2026-05-05 18:55 | 49.31117 | -2.05021 | 1992 ft | 181 kts | 80° |
| 2026-05-05 18:55 | 49.31217 | -2.03095 | 1991 ft | 182 kts | 80° |
| 2026-05-05 18:55 | 49.31321 | -2.01161 | 1996 ft | 183 kts | 81° |
| 2026-05-05 18:55 | 49.31413 | -1.99209 | 1991 ft | 185 kts | 88° |
| 2026-05-05 18:56 | 49.30942 | -1.97375 | 1993 ft | 192 kts | 129° |
| 2026-05-05 18:56 | 49.29786 | -1.96369 | 1991 ft | 196 kts | 169° |
| 2026-05-05 18:56 | 49.28886 | -1.96282 | 2012 ft | 197 kts | 179° |
| 2026-05-05 18:56 | 49.27058 | -1.96298 | 1990 ft | 197 kts | 180° |
| 2026-05-05 18:57 | 49.25707 | -1.96323 | 1978 ft | 191 kts | 180° |
| 2026-05-05 18:57 | 49.24388 | -1.96353 | 1978 ft | 189 kts | 180° |
| 2026-05-05 18:57 | 49.23068 | -1.96459 | 1978 ft | 192 kts | 195° |
| 2026-05-05 18:57 | 49.22041 | -1.97586 | 1996 ft | 180 kts | 247° |
| 2026-05-05 18:58 | 49.21860 | -1.98755 | 1961 ft | 165 kts | 283° |
| 2026-05-05 18:58 | 49.22103 | -2.00369 | 2039 ft | 156 kts | 281° |
| 2026-05-05 18:58 | 49.22132 | -2.02051 | 2013 ft | 160 kts | 277° |
| 2026-05-05 18:58 | 49.22155 | -2.03756 | 1946 ft | 163 kts | 272° |
| 2026-05-05 18:59 | 49.21933 | -2.05490 | 1757 ft | 167 kts | 263° |
| 2026-05-05 18:59 | 49.21766 | -2.07185 | 1621 ft | 153 kts | 271° |
| 2026-05-05 18:59 | 49.21736 | -2.07702 | 1557 ft | 149 kts | 272° |